sensor_id;sensor_type;location;lat;lon;timestamp;pressure;altitude;pressure_sealevel;temperature;humidity
71643;BME280;59438;45.014;39.006;2023-02-12T00:00:41;102374.22;;;-5.33;73.99
71643;BME280;59438;45.014;39.006;2023-02-12T00:03:08;102385.19;;;-5.19;74.19
71643;BME280;59438;45.014;39.006;2023-02-12T00:05:36;102401.31;;;-5.06;74.49
71643;BME280;59438;45.014;39.006;2023-02-12T00:08:05;102413.00;;;-4.94;74.48
71643;BME280;59438;45.014;39.006;2023-02-12T00:10:31;102384.78;;;-5.11;74.63
71643;BME280;59438;45.014;39.006;2023-02-12T00:12:58;102417.13;;;-4.81;74.70
71643;BME280;59438;45.014;39.006;2023-02-12T00:15:24;102408.94;;;-4.74;75.20
71643;BME280;59438;45.014;39.006;2023-02-12T00:17:51;102410.13;;;-4.68;74.95
71643;BME280;59438;45.014;39.006;2023-02-12T00:20:17;102398.53;;;-4.61;74.56
71643;BME280;59438;45.014;39.006;2023-02-12T00:22:44;102387.63;;;-4.57;74.64
71643;BME280;59438;45.014;39.006;2023-02-12T00:25:12;102385.22;;;-4.54;74.91
71643;BME280;59438;45.014;39.006;2023-02-12T00:27:38;102377.75;;;-4.49;74.57
71643;BME280;59438;45.014;39.006;2023-02-12T00:30:06;102372.78;;;-4.46;74.54
71643;BME280;59438;45.014;39.006;2023-02-12T00:32:32;102374.16;;;-4.36;74.78
71643;BME280;59438;45.014;39.006;2023-02-12T00:34:58;102370.19;;;-4.30;74.76
71643;BME280;59438;45.014;39.006;2023-02-12T00:37:25;102370.44;;;-4.25;74.38
71643;BME280;59438;45.014;39.006;2023-02-12T00:39:51;102367.28;;;-4.19;74.47
71643;BME280;59438;45.014;39.006;2023-02-12T00:42:19;102359.03;;;-4.14;74.64
71643;BME280;59438;45.014;39.006;2023-02-12T00:44:45;102348.16;;;-4.08;74.74
71643;BME280;59438;45.014;39.006;2023-02-12T00:47:12;102344.16;;;-4.03;74.46
71643;BME280;59438;45.014;39.006;2023-02-12T00:49:38;102336.75;;;-3.97;74.71
71643;BME280;59438;45.014;39.006;2023-02-12T00:52:04;102320.22;;;-4.02;74.38
71643;BME280;59438;45.014;39.006;2023-02-12T00:54:31;102335.34;;;-3.90;74.67
71643;BME280;59438;45.014;39.006;2023-02-12T00:56:57;102327.72;;;-3.89;74.72
71643;BME280;59438;45.014;39.006;2023-02-12T00:59:26;102318.47;;;-3.85;74.38
71643;BME280;59438;45.014;39.006;2023-02-12T01:01:54;102323.97;;;-3.77;74.96
71643;BME280;59438;45.014;39.006;2023-02-12T01:04:20;102290.97;;;-3.88;74.45
71643;BME280;59438;45.014;39.006;2023-02-12T01:06:47;102310.47;;;-3.73;74.30
71643;BME280;59438;45.014;39.006;2023-02-12T01:09:14;102286.03;;;-3.83;74.38
71643;BME280;59438;45.014;39.006;2023-02-12T01:11:40;102312.66;;;-3.63;74.53
71643;BME280;59438;45.014;39.006;2023-02-12T01:14:07;102272.53;;;-3.79;74.44
71643;BME280;59438;45.014;39.006;2023-02-12T01:16:35;102304.28;;;-3.59;74.74
71643;BME280;59438;45.014;39.006;2023-02-12T01:19:03;102299.34;;;-3.54;74.22
71643;BME280;59438;45.014;39.006;2023-02-12T01:21:30;102303.78;;;-3.52;73.68
71643;BME280;59438;45.014;39.006;2023-02-12T01:23:57;102306.47;;;-3.49;74.35
71643;BME280;59438;45.014;39.006;2023-02-12T01:26:25;102297.16;;;-3.47;74.72
71643;BME280;59438;45.014;39.006;2023-02-12T01:28:53;102270.81;;;-3.60;74.28
71643;BME280;59438;45.014;39.006;2023-02-12T01:31:21;102291.34;;;-3.42;74.37
71643;BME280;59438;45.014;39.006;2023-02-12T01:33:50;102290.59;;;-3.40;74.18
71643;BME280;59438;45.014;39.006;2023-02-12T01:36:16;102288.69;;;-3.44;74.18
71643;BME280;59438;45.014;39.006;2023-02-12T01:38:43;102266.13;;;-3.51;74.57
71643;BME280;59438;45.014;39.006;2023-02-12T01:41:12;102289.91;;;-3.36;74.54
71643;BME280;59438;45.014;39.006;2023-02-12T01:43:38;102281.13;;;-3.41;74.33
71643;BME280;59438;45.014;39.006;2023-02-12T01:46:05;102241.97;;;-3.55;74.93
71643;BME280;59438;45.014;39.006;2023-02-12T01:48:35;102264.22;;;-3.36;74.76
71643;BME280;59438;45.014;39.006;2023-02-12T01:51:04;102270.09;;;-3.38;73.86
71643;BME280;59438;45.014;39.006;2023-02-12T01:53:35;102261.44;;;-3.40;74.20
71643;BME280;59438;45.014;39.006;2023-02-12T01:56:03;102258.22;;;-3.36;74.15
71643;BME280;59438;45.014;39.006;2023-02-12T01:58:33;102247.72;;;-3.41;73.91
71643;BME280;59438;45.014;39.006;2023-02-12T02:01:01;102216.16;;;-3.58;74.19
71643;BME280;59438;45.014;39.006;2023-02-12T02:03:29;102261.72;;;-3.34;74.88
71643;BME280;59438;45.014;39.006;2023-02-12T02:05:58;102239.00;;;-3.45;75.32
71643;BME280;59438;45.014;39.006;2023-02-12T02:08:27;102253.63;;;-3.24;75.12
71643;BME280;59438;45.014;39.006;2023-02-12T02:10:53;102254.63;;;-3.20;74.58
71643;BME280;59438;45.014;39.006;2023-02-12T02:13:20;102256.47;;;-3.18;74.52
71643;BME280;59438;45.014;39.006;2023-02-12T02:15:49;102262.69;;;-3.13;75.06
71643;BME280;59438;45.014;39.006;2023-02-12T02:18:22;102243.88;;;-3.12;74.56
71643;BME280;59438;45.014;39.006;2023-02-12T02:24:27;102271.75;;;-3.01;74.55
71643;BME280;59438;45.014;39.006;2023-02-12T02:27:08;102253.75;;;-3.01;74.48
71643;BME280;59438;45.014;39.006;2023-02-12T02:32:47;102254.88;;;-2.95;74.43
71643;BME280;59438;45.014;39.006;2023-02-12T02:35:19;102254.97;;;-2.93;74.19
71643;BME280;59438;45.014;39.006;2023-02-12T02:37:52;102213.72;;;-3.16;74.45
71643;BME280;59438;45.014;39.006;2023-02-12T02:40:23;102236.44;;;-3.06;75.25
71643;BME280;59438;45.014;39.006;2023-02-12T02:42:54;102258.47;;;-2.91;74.40
71643;BME280;59438;45.014;39.006;2023-02-12T02:45:25;102256.78;;;-2.91;74.93
71643;BME280;59438;45.014;39.006;2023-02-12T02:47:58;102243.31;;;-2.85;74.65
71643;BME280;59438;45.014;39.006;2023-02-12T02:50:27;102254.53;;;-2.83;74.34
71643;BME280;59438;45.014;39.006;2023-02-12T02:52:58;102209.09;;;-3.04;73.97
71643;BME280;59438;45.014;39.006;2023-02-12T02:55:31;102241.13;;;-2.76;74.37
71643;BME280;59438;45.014;39.006;2023-02-12T02:58:01;102223.75;;;-2.81;74.72
71643;BME280;59438;45.014;39.006;2023-02-12T03:00:34;102236.19;;;-2.71;74.78
71643;BME280;59438;45.014;39.006;2023-02-12T03:03:08;102224.94;;;-2.73;74.82
71643;BME280;59438;45.014;39.006;2023-02-12T03:05:39;102216.41;;;-2.72;73.99
71643;BME280;59438;45.014;39.006;2023-02-12T03:08:09;102221.97;;;-2.61;74.67
71643;BME280;59438;45.014;39.006;2023-02-12T03:10:41;102189.56;;;-2.79;74.78
71643;BME280;59438;45.014;39.006;2023-02-12T03:13:10;102214.50;;;-2.55;74.91
71643;BME280;59438;45.014;39.006;2023-02-12T03:15:39;102185.75;;;-2.68;74.84
71643;BME280;59438;45.014;39.006;2023-02-12T03:18:10;102189.44;;;-2.61;74.52
71643;BME280;59438;45.014;39.006;2023-02-12T03:20:42;102209.75;;;-2.46;74.78
71643;BME280;59438;45.014;39.006;2023-02-12T03:23:12;102205.41;;;-2.47;74.71
71643;BME280;59438;45.014;39.006;2023-02-12T03:25:45;102170.16;;;-2.71;74.59
71643;BME280;59438;45.014;39.006;2023-02-12T03:28:17;102224.59;;;-2.39;74.64
71643;BME280;59438;45.014;39.006;2023-02-12T03:30:52;102210.69;;;-2.44;74.98
71643;BME280;59438;45.014;39.006;2023-02-12T03:33:28;102218.78;;;-2.35;74.70
71643;BME280;59438;45.014;39.006;2023-02-12T03:36:00;102225.75;;;-2.32;75.04
71643;BME280;59438;45.014;39.006;2023-02-12T03:38:33;102214.69;;;-2.30;74.70
71643;BME280;59438;45.014;39.006;2023-02-12T03:41:04;102191.75;;;-2.46;74.84
71643;BME280;59438;45.014;39.006;2023-02-12T03:43:39;102193.88;;;-2.36;74.43
71643;BME280;59438;45.014;39.006;2023-02-12T03:46:16;102211.50;;;-2.24;74.97
71643;BME280;59438;45.014;39.006;2023-02-12T03:48:48;102189.75;;;-2.31;74.57
71643;BME280;59438;45.014;39.006;2023-02-12T03:51:23;102204.75;;;-2.20;74.72
71643;BME280;59438;45.014;39.006;2023-02-12T03:53:52;102200.53;;;-2.18;74.51
71643;BME280;59438;45.014;39.006;2023-02-12T03:56:23;102203.13;;;-2.18;74.50
71643;BME280;59438;45.014;39.006;2023-02-12T03:58:50;102201.69;;;-2.12;74.68
71643;BME280;59438;45.014;39.006;2023-02-12T04:01:17;102197.28;;;-2.14;74.76
71643;BME280;59438;45.014;39.006;2023-02-12T04:03:45;102204.25;;;-2.12;74.52
71643;BME280;59438;45.014;39.006;2023-02-12T04:06:19;102197.97;;;-2.18;74.52
71643;BME280;59438;45.014;39.006;2023-02-12T04:08:46;102197.28;;;-2.14;74.66
71643;BME280;59438;45.014;39.006;2023-02-12T04:11:21;102200.09;;;-2.08;75.10
71643;BME280;59438;45.014;39.006;2023-02-12T04:16:50;102181.03;;;-2.13;74.57
71643;BME280;59438;45.014;39.006;2023-02-12T04:19:24;102164.16;;;-2.28;75.13
71643;BME280;59438;45.014;39.006;2023-02-12T04:22:05;102208.81;;;-2.05;75.02
71643;BME280;59438;45.014;39.006;2023-02-12T04:24:42;102177.38;;;-2.18;75.38
71643;BME280;59438;45.014;39.006;2023-02-12T04:27:15;102199.63;;;-1.98;75.04
71643;BME280;59438;45.014;39.006;2023-02-12T04:29:49;102210.13;;;-1.93;74.97
71643;BME280;59438;45.014;39.006;2023-02-12T04:32:19;102211.00;;;-1.93;74.70
71643;BME280;59438;45.014;39.006;2023-02-12T04:34:54;102190.91;;;-2.01;75.12
71643;BME280;59438;45.014;39.006;2023-02-12T04:37:25;102071.72;;;-2.67;75.10
71643;BME280;59438;45.014;39.006;2023-02-12T04:39:53;102204.25;;;-1.89;75.32
71643;BME280;59438;45.014;39.006;2023-02-12T04:42:22;102163.28;;;-2.06;75.04
71643;BME280;59438;45.014;39.006;2023-02-12T04:44:48;102188.03;;;-1.87;75.14
71643;BME280;59438;45.014;39.006;2023-02-12T04:47:15;102188.09;;;-1.85;75.46
71643;BME280;59438;45.014;39.006;2023-02-12T04:49:42;102179.59;;;-1.83;75.51
71643;BME280;59438;45.014;39.006;2023-02-12T04:52:10;102164.50;;;-1.96;75.71
71643;BME280;59438;45.014;39.006;2023-02-12T04:54:37;102177.03;;;-1.83;75.96
71643;BME280;59438;45.014;39.006;2023-02-12T04:57:03;102184.16;;;-1.75;75.50
71643;BME280;59438;45.014;39.006;2023-02-12T04:59:29;102176.41;;;-1.75;75.46
71643;BME280;59438;45.014;39.006;2023-02-12T05:01:56;102181.81;;;-1.69;75.62
71643;BME280;59438;45.014;39.006;2023-02-12T05:04:22;102177.59;;;-1.67;75.45
71643;BME280;59438;45.014;39.006;2023-02-12T05:06:48;102180.22;;;-1.66;75.94
71643;BME280;59438;45.014;39.006;2023-02-12T05:09:18;102171.97;;;-1.79;75.96
71643;BME280;59438;45.014;39.006;2023-02-12T05:11:44;102178.50;;;-1.67;76.00
71643;BME280;59438;45.014;39.006;2023-02-12T05:14:11;102176.88;;;-1.63;75.65
71643;BME280;59438;45.014;39.006;2023-02-12T05:16:37;102165.84;;;-1.59;75.57
71643;BME280;59438;45.014;39.006;2023-02-12T05:19:04;102162.31;;;-1.63;75.44
71643;BME280;59438;45.014;39.006;2023-02-12T05:21:31;102166.22;;;-1.50;75.88
71643;BME280;59438;45.014;39.006;2023-02-12T05:23:57;102171.44;;;-1.47;75.98
71643;BME280;59438;45.014;39.006;2023-02-12T05:26:25;102166.44;;;-1.44;76.18
71643;BME280;59438;45.014;39.006;2023-02-12T05:28:51;102157.84;;;-1.43;75.95
71643;BME280;59438;45.014;39.006;2023-02-12T05:31:18;102169.22;;;-1.37;76.28
71643;BME280;59438;45.014;39.006;2023-02-12T05:33:47;102182.19;;;-1.34;75.86
71643;BME280;59438;45.014;39.006;2023-02-12T05:36:16;102180.47;;;-1.35;75.75
71643;BME280;59438;45.014;39.006;2023-02-12T05:38:43;102186.56;;;-1.33;76.05
71643;BME280;59438;45.014;39.006;2023-02-12T05:41:11;102185.72;;;-1.32;75.75
71643;BME280;59438;45.014;39.006;2023-02-12T05:43:39;102170.03;;;-1.38;75.96
71643;BME280;59438;45.014;39.006;2023-02-12T05:46:07;102180.47;;;-1.35;76.08
71643;BME280;59438;45.014;39.006;2023-02-12T05:48:34;102130.72;;;-1.57;75.72
71643;BME280;59438;45.014;39.006;2023-02-12T05:51:01;102172.97;;;-1.28;76.02
71643;BME280;59438;45.014;39.006;2023-02-12T05:53:29;102185.13;;;-1.25;76.18
71643;BME280;59438;45.014;39.006;2023-02-12T05:56:08;102167.06;;;-1.25;76.21
71643;BME280;59438;45.014;39.006;2023-02-12T05:58:34;102162.94;;;-1.20;76.23
71643;BME280;59438;45.014;39.006;2023-02-12T06:01:08;102118.16;;;-1.48;76.56
71643;BME280;59438;45.014;39.006;2023-02-12T06:03:35;102170.28;;;-1.07;76.49
71643;BME280;59438;45.014;39.006;2023-02-12T06:06:01;102148.53;;;-1.13;76.53
71643;BME280;59438;45.014;39.006;2023-02-12T06:08:27;102162.84;;;-0.97;76.42
71643;BME280;59438;45.014;39.006;2023-02-12T06:10:54;102161.31;;;-0.92;76.26
71643;BME280;59438;45.014;39.006;2023-02-12T06:13:20;102165.75;;;-0.88;76.38
71643;BME280;59438;45.014;39.006;2023-02-12T06:15:46;102157.22;;;-0.86;76.28
71643;BME280;59438;45.014;39.006;2023-02-12T06:18:14;102140.88;;;-0.86;76.67
71643;BME280;59438;45.014;39.006;2023-02-12T06:20:40;102158.25;;;-0.81;76.45
71643;BME280;59438;45.014;39.006;2023-02-12T06:23:07;102145.19;;;-0.85;76.38
71643;BME280;59438;45.014;39.006;2023-02-12T06:25:33;102155.00;;;-0.75;76.55
71643;BME280;59438;45.014;39.006;2023-02-12T06:28:00;102163.72;;;-0.71;76.73
71643;BME280;59438;45.014;39.006;2023-02-12T06:30:26;102148.28;;;-0.70;76.48
71643;BME280;59438;45.014;39.006;2023-02-12T06:32:52;102154.47;;;-0.65;76.67
71643;BME280;59438;45.014;39.006;2023-02-12T06:35:20;102149.41;;;-0.62;76.61
71643;BME280;59438;45.014;39.006;2023-02-12T06:37:47;102151.25;;;-0.57;76.87
71643;BME280;59438;45.014;39.006;2023-02-12T06:40:13;102152.22;;;-0.54;76.84
71643;BME280;59438;45.014;39.006;2023-02-12T06:42:40;102138.31;;;-0.59;76.87
71643;BME280;59438;45.014;39.006;2023-02-12T06:45:07;102142.09;;;-0.48;77.00
71643;BME280;59438;45.014;39.006;2023-02-12T06:47:33;102137.09;;;-0.43;77.13
71643;BME280;59438;45.014;39.006;2023-02-12T06:49:59;102141.53;;;-0.39;77.04
71643;BME280;59438;45.014;39.006;2023-02-12T06:52:27;102133.84;;;-0.36;77.26
71643;BME280;59438;45.014;39.006;2023-02-12T06:54:54;102129.66;;;-0.32;77.08
71643;BME280;59438;45.014;39.006;2023-02-12T06:57:20;102128.09;;;-0.27;77.18
71643;BME280;59438;45.014;39.006;2023-02-12T06:59:47;102120.38;;;-0.26;77.28
71643;BME280;59438;45.014;39.006;2023-02-12T07:02:14;102099.66;;;-0.29;77.24
71643;BME280;59438;45.014;39.006;2023-02-12T07:04:40;102113.75;;;-0.17;77.61
71643;BME280;59438;45.014;39.006;2023-02-12T07:07:07;102116.50;;;-0.11;77.20
71643;BME280;59438;45.014;39.006;2023-02-12T07:09:35;102100.97;;;-0.13;77.42
71643;BME280;59438;45.014;39.006;2023-02-12T07:12:01;102079.25;;;-0.19;77.65
71643;BME280;59438;45.014;39.006;2023-02-12T07:14:28;102122.97;;;0.03;77.59
71643;BME280;59438;45.014;39.006;2023-02-12T07:16:54;102116.13;;;0.05;77.54
71643;BME280;59438;45.014;39.006;2023-02-12T07:19:21;102115.50;;;0.14;77.60
71643;BME280;59438;45.014;39.006;2023-02-12T07:21:47;102104.38;;;0.16;77.66
71643;BME280;59438;45.014;39.006;2023-02-12T07:24:14;102105.38;;;0.22;77.53
71643;BME280;59438;45.014;39.006;2023-02-12T07:26:42;102100.34;;;0.26;77.42
71643;BME280;59438;45.014;39.006;2023-02-12T07:29:09;102108.38;;;0.35;77.08
71643;BME280;59438;45.014;39.006;2023-02-12T07:31:35;102103.31;;;0.40;76.79
71643;BME280;59438;45.014;39.006;2023-02-12T07:34:02;102067.75;;;0.31;77.16
71643;BME280;59438;45.014;39.006;2023-02-12T07:36:30;102080.09;;;0.42;76.76
71643;BME280;59438;45.014;39.006;2023-02-12T07:38:57;102096.00;;;0.57;76.55
71643;BME280;59438;45.014;39.006;2023-02-12T07:41:25;102091.78;;;0.60;76.69
71643;BME280;59438;45.014;39.006;2023-02-12T07:43:55;102088.41;;;0.63;76.69
71643;BME280;59438;45.014;39.006;2023-02-12T07:46:23;102072.66;;;0.54;76.26
71643;BME280;59438;45.014;39.006;2023-02-12T07:48:50;102086.03;;;0.71;76.08
71643;BME280;59438;45.014;39.006;2023-02-12T07:51:17;102074.81;;;0.70;76.08
71643;BME280;59438;45.014;39.006;2023-02-12T07:53:44;102074.16;;;0.79;75.87
71643;BME280;59438;45.014;39.006;2023-02-12T07:56:12;102091.72;;;0.92;75.99
71643;BME280;59438;45.014;39.006;2023-02-12T07:58:40;102078.03;;;0.96;76.00
71643;BME280;59438;45.014;39.006;2023-02-12T08:01:14;102080.75;;;1.01;75.44
71643;BME280;59438;45.014;39.006;2023-02-12T08:03:41;102081.72;;;1.06;75.74
71643;BME280;59438;45.014;39.006;2023-02-12T08:06:09;102075.81;;;1.12;75.40
71643;BME280;59438;45.014;39.006;2023-02-12T08:08:36;102061.09;;;1.09;74.98
71643;BME280;59438;45.014;39.006;2023-02-12T08:11:02;102087.53;;;1.32;75.11
71643;BME280;59438;45.014;39.006;2023-02-12T08:13:29;102082.56;;;1.43;74.80
71643;BME280;59438;45.014;39.006;2023-02-12T08:15:59;102068.91;;;1.49;74.32
71643;BME280;59438;45.014;39.006;2023-02-12T08:18:27;102075.25;;;1.63;74.40
71643;BME280;59438;45.014;39.006;2023-02-12T08:20:53;102065.84;;;1.68;74.59
71643;BME280;59438;45.014;39.006;2023-02-12T08:23:20;102072.25;;;1.84;74.03
71643;BME280;59438;45.014;39.006;2023-02-12T08:26:03;102075.88;;;1.92;73.00
71643;BME280;59438;45.014;39.006;2023-02-12T08:28:30;102067.41;;;2.01;73.71
71643;BME280;59438;45.014;39.006;2023-02-12T08:30:59;102065.72;;;2.03;72.35
71643;BME280;59438;45.014;39.006;2023-02-12T08:33:27;102043.94;;;1.95;72.75
71643;BME280;59438;45.014;39.006;2023-02-12T08:36:00;102073.66;;;2.11;72.71
71643;BME280;59438;45.014;39.006;2023-02-12T08:38:27;102067.69;;;2.15;72.12
71643;BME280;59438;45.014;39.006;2023-02-12T08:40:53;102062.34;;;2.07;72.49
71643;BME280;59438;45.014;39.006;2023-02-12T08:43:19;102043.13;;;1.96;72.43
71643;BME280;59438;45.014;39.006;2023-02-12T08:45:46;102068.50;;;2.14;72.68
71643;BME280;59438;45.014;39.006;2023-02-12T08:48:12;102058.13;;;2.12;72.80
71643;BME280;59438;45.014;39.006;2023-02-12T08:50:40;102062.41;;;2.10;72.22
71643;BME280;59438;45.014;39.006;2023-02-12T08:53:06;102057.13;;;2.06;72.71
71643;BME280;59438;45.014;39.006;2023-02-12T08:55:32;102047.44;;;1.97;72.87
71643;BME280;59438;45.014;39.006;2023-02-12T08:57:59;102036.97;;;1.91;73.09
71643;BME280;59438;45.014;39.006;2023-02-12T09:00:25;102027.34;;;1.85;73.02
71643;BME280;59438;45.014;39.006;2023-02-12T09:02:51;102043.03;;;1.93;73.53
71643;BME280;59438;45.014;39.006;2023-02-12T09:05:18;102042.25;;;1.97;73.15
71643;BME280;59438;45.014;39.006;2023-02-12T09:07:46;102032.06;;;2.05;74.22
71643;BME280;59438;45.014;39.006;2023-02-12T09:10:12;102025.44;;;2.20;73.47
71643;BME280;59438;45.014;39.006;2023-02-12T09:12:39;102027.34;;;2.29;73.70
71643;BME280;59438;45.014;39.006;2023-02-12T09:15:06;102016.13;;;2.32;73.34
71643;BME280;59438;45.014;39.006;2023-02-12T09:17:32;102011.03;;;2.35;73.66
71643;BME280;59438;45.014;39.006;2023-02-12T09:19:59;101994.53;;;2.31;73.26
71643;BME280;59438;45.014;39.006;2023-02-12T09:25:23;101958.13;;;2.25;73.09
71643;BME280;59438;45.014;39.006;2023-02-12T09:27:50;101988.00;;;2.53;73.61
71643;BME280;59438;45.014;39.006;2023-02-12T09:30:16;101989.00;;;2.63;73.61
71643;BME280;59438;45.014;39.006;2023-02-12T09:32:43;101982.28;;;2.74;73.70
71643;BME280;59438;45.014;39.006;2023-02-12T09:35:09;101981.44;;;2.77;73.03
71643;BME280;59438;45.014;39.006;2023-02-12T09:37:36;101980.78;;;2.92;72.79
71643;BME280;59438;45.014;39.006;2023-02-12T09:40:02;101978.34;;;3.01;72.21
71643;BME280;59438;45.014;39.006;2023-02-12T09:42:45;101981.91;;;3.08;71.41
71643;BME280;59438;45.014;39.006;2023-02-12T09:45:20;101977.59;;;3.10;71.53
71643;BME280;59438;45.014;39.006;2023-02-12T09:47:51;101974.22;;;3.15;72.01
71643;BME280;59438;45.014;39.006;2023-02-12T09:50:41;101977.72;;;3.19;71.07
71643;BME280;59438;45.014;39.006;2023-02-12T09:53:11;101973.41;;;3.21;71.31
71643;BME280;59438;45.014;39.006;2023-02-12T09:55:40;101961.31;;;3.21;71.00
71643;BME280;59438;45.014;39.006;2023-02-12T09:58:13;101962.09;;;3.16;70.55
71643;BME280;59438;45.014;39.006;2023-02-12T10:00:39;101955.19;;;3.16;71.51
71643;BME280;59438;45.014;39.006;2023-02-12T10:03:12;101946.44;;;3.10;71.23
71643;BME280;59438;45.014;39.006;2023-02-12T10:05:42;101963.84;;;3.15;71.46
71643;BME280;59438;45.014;39.006;2023-02-12T10:08:27;101948.28;;;3.18;70.71
71643;BME280;59438;45.014;39.006;2023-02-12T10:11:12;101926.50;;;3.06;71.00
71643;BME280;59438;45.014;39.006;2023-02-12T10:13:46;101947.53;;;3.27;70.77
71643;BME280;59438;45.014;39.006;2023-02-12T10:16:24;101918.88;;;3.19;71.32
71643;BME280;59438;45.014;39.006;2023-02-12T10:19:09;101921.47;;;3.19;70.62
71643;BME280;59438;45.014;39.006;2023-02-12T10:21:48;101926.84;;;3.32;71.06
71643;BME280;59438;45.014;39.006;2023-02-12T10:24:39;101941.69;;;3.45;70.28
71643;BME280;59438;45.014;39.006;2023-02-12T10:27:12;101936.53;;;3.47;70.70
71643;BME280;59438;45.014;39.006;2023-02-12T10:29:42;101923.50;;;3.42;71.02
71643;BME280;59438;45.014;39.006;2023-02-12T10:32:16;101915.75;;;3.47;70.59
71643;BME280;59438;45.014;39.006;2023-02-12T10:34:47;101901.81;;;3.40;71.16
71643;BME280;59438;45.014;39.006;2023-02-12T10:37:23;101911.50;;;3.53;70.36
71643;BME280;59438;45.014;39.006;2023-02-12T10:39:55;101908.06;;;3.57;70.64
71643;BME280;59438;45.014;39.006;2023-02-12T10:42:33;101902.91;;;3.62;69.48
71643;BME280;59438;45.014;39.006;2023-02-12T10:45:03;101897.72;;;3.62;70.39
71643;BME280;59438;45.014;39.006;2023-02-12T10:47:30;101898.69;;;3.69;70.74
71643;BME280;59438;45.014;39.006;2023-02-12T10:49:59;101892.66;;;3.74;69.78
71643;BME280;59438;45.014;39.006;2023-02-12T10:52:35;101865.72;;;3.65;68.34
71643;BME280;59438;45.014;39.006;2023-02-12T10:55:23;101847.47;;;3.58;68.13
71643;BME280;59438;45.014;39.006;2023-02-12T10:57:49;101880.63;;;3.84;69.24
71643;BME280;59438;45.014;39.006;2023-02-12T11:00:23;101875.50;;;3.92;67.72
71643;BME280;59438;45.014;39.006;2023-02-12T11:03:03;101877.31;;;4.00;66.17
71643;BME280;59438;45.014;39.006;2023-02-12T11:05:32;101876.47;;;4.04;67.66
71643;BME280;59438;45.014;39.006;2023-02-12T11:07:59;101879.03;;;4.01;67.48
71643;BME280;59438;45.014;39.006;2023-02-12T11:10:35;101891.25;;;4.12;66.61
71643;BME280;59438;45.014;39.006;2023-02-12T11:13:15;101881.75;;;4.12;67.29
71643;BME280;59438;45.014;39.006;2023-02-12T11:15:48;101903.38;;;4.10;65.32
71643;BME280;59438;45.014;39.006;2023-02-12T11:18:21;101903.38;;;4.10;64.92
71643;BME280;59438;45.014;39.006;2023-02-12T11:20:50;101879.06;;;4.03;66.36
71643;BME280;59438;45.014;39.006;2023-02-12T11:23:25;101888.66;;;4.10;62.78
71643;BME280;59438;45.014;39.006;2023-02-12T11:25:57;101832.91;;;3.77;64.81
71643;BME280;59438;45.014;39.006;2023-02-12T11:28:25;101885.19;;;4.08;66.69
71643;BME280;59438;45.014;39.006;2023-02-12T11:30:56;101856.41;;;3.88;64.83
71643;BME280;59438;45.014;39.006;2023-02-12T11:33:26;101883.44;;;4.07;66.32
71643;BME280;59438;45.014;39.006;2023-02-12T11:35:56;101883.41;;;4.06;66.68
71643;BME280;59438;45.014;39.006;2023-02-12T11:38:27;101890.34;;;4.02;66.53
71643;BME280;59438;45.014;39.006;2023-02-12T11:40:58;101845.06;;;3.80;66.62
71643;BME280;59438;45.014;39.006;2023-02-12T11:43:26;101874.66;;;3.91;67.09
71643;BME280;59438;45.014;39.006;2023-02-12T11:45:54;101852.81;;;3.75;66.61
71643;BME280;59438;45.014;39.006;2023-02-12T11:48:24;101876.28;;;3.84;67.28
71643;BME280;59438;45.014;39.006;2023-02-12T11:50:53;101878.03;;;3.86;67.08
71643;BME280;59438;45.014;39.006;2023-02-12T11:53:23;101867.59;;;3.82;66.85
71643;BME280;59438;45.014;39.006;2023-02-12T11:55:55;101866.72;;;3.79;65.82
71643;BME280;59438;45.014;39.006;2023-02-12T11:58:24;101882.31;;;3.79;66.90
71643;BME280;59438;45.014;39.006;2023-02-12T12:00:57;101858.81;;;3.68;65.62
71643;BME280;59438;45.014;39.006;2023-02-12T12:03:28;101864.94;;;3.73;66.44
71643;BME280;59438;45.014;39.006;2023-02-12T12:06:04;101851.88;;;3.67;65.04
71643;BME280;59438;45.014;39.006;2023-02-12T12:08:36;101864.09;;;3.77;65.96
71643;BME280;59438;45.014;39.006;2023-02-12T12:11:09;101864.97;;;3.75;66.73
71643;BME280;59438;45.014;39.006;2023-02-12T12:13:42;101870.16;;;3.78;66.71
71643;BME280;59438;45.014;39.006;2023-02-12T12:16:14;101876.22;;;3.78;65.68
71643;BME280;59438;45.014;39.006;2023-02-12T12:18:46;101866.66;;;3.71;66.71
71643;BME280;59438;45.014;39.006;2023-02-12T12:21:19;101849.25;;;3.66;65.72
71643;BME280;59438;45.014;39.006;2023-02-12T12:23:52;101865.81;;;3.75;66.23
71643;BME280;59438;45.014;39.006;2023-02-12T12:26:23;101884.09;;;3.83;66.34
71643;BME280;59438;45.014;39.006;2023-02-12T12:28:53;101873.59;;;3.74;66.44
71643;BME280;59438;45.014;39.006;2023-02-12T12:31:27;101851.84;;;3.66;65.78
71643;BME280;59438;45.014;39.006;2023-02-12T12:33:59;101881.41;;;3.75;66.16
71643;BME280;59438;45.014;39.006;2023-02-12T12:36:52;101878.00;;;3.82;64.75
71643;BME280;59438;45.014;39.006;2023-02-12T12:39:27;101844.91;;;3.63;65.55
71643;BME280;59438;45.014;39.006;2023-02-12T12:42:24;101871.97;;;3.83;65.58
71643;BME280;59438;45.014;39.006;2023-02-12T12:45:09;101871.06;;;3.81;65.43
71643;BME280;59438;45.014;39.006;2023-02-12T12:47:54;101858.03;;;3.77;65.08
71643;BME280;59438;45.014;39.006;2023-02-12T12:50:40;101844.19;;;3.79;65.19
71643;BME280;59438;45.014;39.006;2023-02-12T12:53:18;101825.06;;;3.71;66.00
71643;BME280;59438;45.014;39.006;2023-02-12T13:02:04;101842.53;;;3.86;65.80
71643;BME280;59438;45.014;39.006;2023-02-12T13:05:00;101851.19;;;3.87;65.66
71643;BME280;59438;45.014;39.006;2023-02-12T13:07:43;101819.81;;;3.68;66.09
71643;BME280;59438;45.014;39.006;2023-02-12T13:10:19;101843.31;;;3.80;66.62
71643;BME280;59438;45.014;39.006;2023-02-12T13:13:04;101849.44;;;3.81;66.57
71643;BME280;59438;45.014;39.006;2023-02-12T13:15:38;101837.19;;;3.69;67.40
71643;BME280;59438;45.014;39.006;2023-02-12T13:18:14;101860.59;;;3.74;67.62